Brookhaven Weather

Current Time: 23:04 Zulu

HWV METARs

Local Time Temperature Dew Point Wind Direction Wind Speed Wind Gust Sky Vis.
4/9/2020 10:56:00 PM 10.0° c -1.1° c 290° 19 kt 31kt CLR 10.0 sm
4/9/2020 9:56:00 PM 12.2° c 0.6° c 290° 22 kt 32kt CLR 10.0 sm
4/9/2020 8:56:00 PM 12.8° c 3.9° c 300° 17 kt 26kt CLR 10.0 sm
4/9/2020 7:56:00 PM 11.7° c 7.8° c 290° 12 kt 22kt FEW 3900 ft AGL 10.0 sm

ISP TAF:

KISP 091920Z 0919/1018 29022G30KT 6SM -SHRA BKN035 TEMPO 0919/0920 29010KT 5SM -SHRA 
FM092100 28025G36KT P6SM SCT035 BKN050 
FM100000 29018G26KT P6SM SCT060 
FM100200 28014G22KT P6SM FEW060 
FM101100 28024G32KT P6SM FEW060 
FM101600 29028G40KT P6SM BKN070
Weather data provided by aviationweather.gov. Pilots must verify weather before flying.